sensor_id;sensor_type;location;lat;lon;timestamp;pressure;altitude;pressure_sealevel;temperature;humidity
63351;BME280;64988;51.058;17.040;2023-01-19T00:00:31;98749.13;;;2.25;84.16
63351;BME280;64988;51.058;17.040;2023-01-19T00:06:24;98753.78;;;2.46;84.68
63351;BME280;64988;51.058;17.040;2023-01-19T00:12:17;98765.59;;;2.68;83.77
63351;BME280;64988;51.058;17.040;2023-01-19T00:18:09;98782.22;;;2.71;83.13
63351;BME280;64988;51.058;17.040;2023-01-19T00:24:02;98782.84;;;2.62;82.53
63351;BME280;64988;51.058;17.040;2023-01-19T00:29:55;98792.78;;;2.60;83.01
63351;BME280;64988;51.058;17.040;2023-01-19T00:35:52;98792.97;;;2.70;83.14
63351;BME280;64988;51.058;17.040;2023-01-19T00:41:46;98799.34;;;2.80;83.33
63351;BME280;64988;51.058;17.040;2023-01-19T00:47:57;98807.56;;;2.89;83.22
63351;BME280;64988;51.058;17.040;2023-01-19T00:53:51;98821.06;;;2.99;82.92
63351;BME280;64988;51.058;17.040;2023-01-19T00:59:44;98825.84;;;3.06;82.44
63351;BME280;64988;51.058;17.040;2023-01-19T01:05:39;98829.75;;;3.13;82.37
63351;BME280;64988;51.058;17.040;2023-01-19T01:11:32;98839.16;;;3.19;82.59
63351;BME280;64988;51.058;17.040;2023-01-19T01:17:25;98840.75;;;3.22;82.27
63351;BME280;64988;51.058;17.040;2023-01-19T01:23:17;98841.69;;;3.21;81.55
63351;BME280;64988;51.058;17.040;2023-01-19T01:29:14;98851.84;;;3.15;80.25
63351;BME280;64988;51.058;17.040;2023-01-19T01:35:08;98860.16;;;3.11;79.86
63351;BME280;64988;51.058;17.040;2023-01-19T01:41:01;98865.06;;;3.04;79.74
63351;BME280;64988;51.058;17.040;2023-01-19T01:46:55;98863.41;;;3.03;79.48
63351;BME280;64988;51.058;17.040;2023-01-19T01:53:11;98858.81;;;2.93;78.69
63351;BME280;64988;51.058;17.040;2023-01-19T01:59:07;98875.13;;;2.88;78.17
63351;BME280;64988;51.058;17.040;2023-01-19T02:05:08;98870.78;;;2.87;78.82
63351;BME280;64988;51.058;17.040;2023-01-19T02:11:02;98860.84;;;2.77;77.59
63351;BME280;64988;51.058;17.040;2023-01-19T02:17:13;98867.34;;;2.73;77.22
63351;BME280;64988;51.058;17.040;2023-01-19T02:23:10;98873.44;;;2.75;77.49
63351;BME280;64988;51.058;17.040;2023-01-19T02:29:09;98884.19;;;2.73;77.57
63351;BME280;64988;51.058;17.040;2023-01-19T02:35:03;98891.44;;;2.71;76.70
63351;BME280;64988;51.058;17.040;2023-01-19T02:40:57;98890.38;;;2.61;77.30
63351;BME280;64988;51.058;17.040;2023-01-19T02:46:53;98894.63;;;2.63;76.82
63351;BME280;64988;51.058;17.040;2023-01-19T02:52:45;98887.81;;;2.72;77.79
63351;BME280;64988;51.058;17.040;2023-01-19T03:11:06;98895.47;;;2.64;76.57
63351;BME280;64988;51.058;17.040;2023-01-19T03:17:02;98893.56;;;2.66;76.52
63351;BME280;64988;51.058;17.040;2023-01-19T03:23:03;98886.84;;;2.60;76.54
63351;BME280;64988;51.058;17.040;2023-01-19T03:28:58;98895.16;;;2.69;76.68
63351;BME280;64988;51.058;17.040;2023-01-19T03:34:53;98899.09;;;2.63;77.32
63351;BME280;64988;51.058;17.040;2023-01-19T03:40:46;98894.63;;;2.63;77.69
63351;BME280;64988;51.058;17.040;2023-01-19T03:46:39;98898.88;;;2.66;77.39
63351;BME280;64988;51.058;17.040;2023-01-19T03:52:32;98896.13;;;2.68;77.68
63351;BME280;64988;51.058;17.040;2023-01-19T03:58:26;98884.06;;;2.62;77.59
63351;BME280;64988;51.058;17.040;2023-01-19T04:04:18;98891.84;;;2.65;78.16
63351;BME280;64988;51.058;17.040;2023-01-19T04:10:11;98906.13;;;2.64;77.85
63351;BME280;64988;51.058;17.040;2023-01-19T04:16:05;98920.41;;;2.63;78.79
63351;BME280;64988;51.058;17.040;2023-01-19T04:21:57;98913.06;;;2.67;79.14
63351;BME280;64988;51.058;17.040;2023-01-19T04:27:52;98926.59;;;2.63;79.18
63351;BME280;64988;51.058;17.040;2023-01-19T04:33:45;98941.19;;;2.71;79.22
63351;BME280;64988;51.058;17.040;2023-01-19T04:39:37;98946.63;;;2.69;79.71
63351;BME280;64988;51.058;17.040;2023-01-19T04:45:31;98962.31;;;2.74;79.81
63351;BME280;64988;51.058;17.040;2023-01-19T04:51:24;98985.00;;;2.79;80.06
63351;BME280;64988;51.058;17.040;2023-01-19T04:57:17;99010.78;;;2.79;79.84
63351;BME280;64988;51.058;17.040;2023-01-19T05:03:10;99010.69;;;2.80;80.40
63351;BME280;64988;51.058;17.040;2023-01-19T05:09:03;99013.56;;;2.77;80.11
63351;BME280;64988;51.058;17.040;2023-01-19T05:14:56;99026.88;;;2.77;80.55
63351;BME280;64988;51.058;17.040;2023-01-19T05:20:48;99020.06;;;2.73;80.85
63351;BME280;64988;51.058;17.040;2023-01-19T05:26:41;99004.38;;;2.69;80.81
63351;BME280;64988;51.058;17.040;2023-01-19T05:32:33;99013.34;;;2.68;80.53
63351;BME280;64988;51.058;17.040;2023-01-19T05:38:26;99022.56;;;2.62;80.63
63351;BME280;64988;51.058;17.040;2023-01-19T05:44:27;99016.09;;;2.66;80.23
63351;BME280;64988;51.058;17.040;2023-01-19T05:50:20;99020.06;;;2.73;80.74
63351;BME280;64988;51.058;17.040;2023-01-19T05:56:12;99022.19;;;2.68;80.67
63351;BME280;64988;51.058;17.040;2023-01-19T06:02:05;99040.72;;;2.70;80.85
63351;BME280;64988;51.058;17.040;2023-01-19T06:08:00;99062.88;;;2.70;80.42
63351;BME280;64988;51.058;17.040;2023-01-19T06:13:53;99068.28;;;2.69;80.54
63351;BME280;64988;51.058;17.040;2023-01-19T06:19:47;99073.50;;;2.57;80.54
63351;BME280;64988;51.058;17.040;2023-01-19T06:25:39;99080.13;;;2.64;80.08
63351;BME280;64988;51.058;17.040;2023-01-19T06:31:33;99075.31;;;2.57;80.70
63351;BME280;64988;51.058;17.040;2023-01-19T06:37:25;99100.72;;;2.48;80.39
63351;BME280;64988;51.058;17.040;2023-01-19T06:43:20;99103.00;;;2.54;80.48
63351;BME280;64988;51.058;17.040;2023-01-19T06:49:12;99108.56;;;2.64;79.72
63351;BME280;64988;51.058;17.040;2023-01-19T06:55:05;99101.13;;;2.69;79.72
63351;BME280;64988;51.058;17.040;2023-01-19T07:01:03;99113.78;;;2.65;78.36
63351;BME280;64988;51.058;17.040;2023-01-19T07:06:57;99114.66;;;2.66;77.52
63351;BME280;64988;51.058;17.040;2023-01-19T07:12:50;99106.44;;;2.69;77.55
63351;BME280;64988;51.058;17.040;2023-01-19T07:18:43;99114.75;;;2.64;76.51
63351;BME280;64988;51.058;17.040;2023-01-19T07:24:36;99108.38;;;2.67;76.76
63351;BME280;64988;51.058;17.040;2023-01-19T07:30:31;99115.59;;;2.65;77.08
63351;BME280;64988;51.058;17.040;2023-01-19T07:36:24;99117.69;;;2.74;76.56
63351;BME280;64988;51.058;17.040;2023-01-19T07:42:17;99115.31;;;2.70;76.47
63351;BME280;64988;51.058;17.040;2023-01-19T07:48:11;99109.88;;;2.71;75.09
63351;BME280;64988;51.058;17.040;2023-01-19T07:54:04;99118.34;;;2.78;74.22
63351;BME280;64988;51.058;17.040;2023-01-19T07:59:59;99117.47;;;2.77;73.07
63351;BME280;64988;51.058;17.040;2023-01-19T08:06:04;99126.00;;;2.82;71.99
63351;BME280;64988;51.058;17.040;2023-01-19T08:11:57;99139.81;;;3.01;71.76
63351;BME280;64988;51.058;17.040;2023-01-19T08:17:57;99149.66;;;3.13;70.84
63351;BME280;64988;51.058;17.040;2023-01-19T08:23:52;99163.44;;;3.20;70.15
63351;BME280;64988;51.058;17.040;2023-01-19T08:29:45;99156.41;;;3.19;69.13
63351;BME280;64988;51.058;17.040;2023-01-19T08:35:40;99167.31;;;3.29;68.19
63351;BME280;64988;51.058;17.040;2023-01-19T08:41:32;99179.56;;;3.31;67.88
63351;BME280;64988;51.058;17.040;2023-01-19T08:47:25;99168.63;;;3.48;67.07
63351;BME280;64988;51.058;17.040;2023-01-19T08:53:18;99163.84;;;3.66;66.82
63351;BME280;64988;51.058;17.040;2023-01-19T08:59:11;99165.78;;;3.64;66.94
63351;BME280;64988;51.058;17.040;2023-01-19T09:05:05;99183.06;;;3.71;66.55
63351;BME280;64988;51.058;17.040;2023-01-19T09:10:58;99189.59;;;3.80;65.04
63351;BME280;64988;51.058;17.040;2023-01-19T09:16:51;99198.88;;;4.12;65.21
63351;BME280;64988;51.058;17.040;2023-01-19T09:22:44;99209.97;;;4.31;63.19
63351;BME280;64988;51.058;17.040;2023-01-19T09:28:39;99207.81;;;4.61;62.46
63351;BME280;64988;51.058;17.040;2023-01-19T09:34:31;99206.84;;;4.99;60.72
63351;BME280;64988;51.058;17.040;2023-01-19T09:40:26;99208.94;;;5.54;59.29
63351;BME280;64988;51.058;17.040;2023-01-19T09:46:28;99204.63;;;5.75;55.96
63351;BME280;64988;51.058;17.040;2023-01-19T09:52:24;99200.75;;;6.14;54.60
63351;BME280;64988;51.058;17.040;2023-01-19T09:58:18;99188.91;;;6.50;53.39
63351;BME280;64988;51.058;17.040;2023-01-19T10:10:23;99172.03;;;7.03;53.38
63351;BME280;64988;51.058;17.040;2023-01-19T10:16:38;99166.19;;;6.98;52.94
63351;BME280;64988;51.058;17.040;2023-01-19T10:22:32;99175.94;;;6.99;52.95
63351;BME280;64988;51.058;17.040;2023-01-19T10:28:25;99187.22;;;6.60;51.44
63351;BME280;64988;51.058;17.040;2023-01-19T10:34:19;99185.59;;;6.79;53.12
63351;BME280;64988;51.058;17.040;2023-01-19T10:40:21;99189.13;;;6.91;52.20
63351;BME280;64988;51.058;17.040;2023-01-19T10:46:21;99181.81;;;6.93;52.52
63351;BME280;64988;51.058;17.040;2023-01-19T10:58:30;99190.50;;;6.74;51.60
63351;BME280;64988;51.058;17.040;2023-01-19T11:04:27;99179.41;;;6.68;51.51
63351;BME280;64988;51.058;17.040;2023-01-19T11:10:23;99185.50;;;6.70;52.98
63351;BME280;64988;51.058;17.040;2023-01-19T11:16:30;99183.56;;;6.72;52.51
63351;BME280;64988;51.058;17.040;2023-01-19T11:22:28;99172.59;;;6.64;52.09
63351;BME280;64988;51.058;17.040;2023-01-19T11:28:28;99175.91;;;6.45;53.32
63351;BME280;64988;51.058;17.040;2023-01-19T11:34:40;99171.88;;;6.40;52.44
63351;BME280;64988;51.058;17.040;2023-01-19T11:40:34;99167.72;;;6.13;52.91
63351;BME280;64988;51.058;17.040;2023-01-19T11:46:31;99163.78;;;5.95;54.00
63351;BME280;64988;51.058;17.040;2023-01-19T11:52:36;99165.03;;;5.91;53.01
63351;BME280;64988;51.058;17.040;2023-01-19T11:58:39;99161.19;;;5.71;51.79
63351;BME280;64988;51.058;17.040;2023-01-19T12:04:37;99152.16;;;5.61;52.20
63351;BME280;64988;51.058;17.040;2023-01-19T12:10:34;99149.56;;;5.60;54.29
63351;BME280;64988;51.058;17.040;2023-01-19T12:16:29;99134.53;;;5.70;53.91
63351;BME280;64988;51.058;17.040;2023-01-19T12:22:26;99124.34;;;5.86;53.21
63351;BME280;64988;51.058;17.040;2023-01-19T12:28:25;99121.94;;;6.05;53.74
63351;BME280;64988;51.058;17.040;2023-01-19T12:46:28;99134.38;;;5.60;53.70
63351;BME280;64988;51.058;17.040;2023-01-19T12:58:23;99130.22;;;5.45;53.11
63351;BME280;64988;51.058;17.040;2023-01-19T13:04:31;99128.38;;;5.46;54.89
63351;BME280;64988;51.058;17.040;2023-01-19T13:16:58;99134.25;;;5.16;53.81
63351;BME280;64988;51.058;17.040;2023-01-19T13:29:21;99148.41;;;5.05;53.74
63351;BME280;64988;51.058;17.040;2023-01-19T13:35:18;99160.06;;;4.81;52.74
63351;BME280;64988;51.058;17.040;2023-01-19T13:41:15;99155.44;;;4.83;54.21
63351;BME280;64988;51.058;17.040;2023-01-19T13:47:15;99161.97;;;4.78;54.78
63351;BME280;64988;51.058;17.040;2023-01-19T13:53:17;99167.59;;;4.63;54.30
63351;BME280;64988;51.058;17.040;2023-01-19T13:59:12;99171.34;;;4.60;53.29
63351;BME280;64988;51.058;17.040;2023-01-19T14:11:17;99181.75;;;4.52;54.70
63351;BME280;64988;51.058;17.040;2023-01-19T14:17:29;99174.91;;;4.48;55.00
63351;BME280;64988;51.058;17.040;2023-01-19T14:29:35;99190.22;;;3.96;55.11
63351;BME280;64988;51.058;17.040;2023-01-19T14:35:29;99195.13;;;3.64;55.22
63351;BME280;64988;51.058;17.040;2023-01-19T14:41:35;99201.13;;;3.28;56.97
63351;BME280;64988;51.058;17.040;2023-01-19T14:47:32;99203.00;;;2.87;58.04
63351;BME280;64988;51.058;17.040;2023-01-19T14:53:26;99211.81;;;2.46;59.38
63351;BME280;64988;51.058;17.040;2023-01-19T14:59:20;99220.66;;;2.04;60.79
63351;BME280;64988;51.058;17.040;2023-01-19T15:05:13;99232.19;;;1.61;62.36
63351;BME280;64988;51.058;17.040;2023-01-19T15:11:19;99237.75;;;1.27;63.76
63351;BME280;64988;51.058;17.040;2023-01-19T15:17:17;99233.03;;;0.86;64.92
63351;BME280;64988;51.058;17.040;2023-01-19T15:23:16;99245.28;;;0.58;66.37
63351;BME280;64988;51.058;17.040;2023-01-19T15:35:15;99258.69;;;0.06;68.76
63351;BME280;64988;51.058;17.040;2023-01-19T15:41:28;99268.28;;;-0.26;71.87
63351;BME280;64988;51.058;17.040;2023-01-19T15:47:22;99264.19;;;-0.48;73.89
63351;BME280;64988;51.058;17.040;2023-01-19T15:53:18;99260.81;;;-0.69;73.76
63351;BME280;64988;51.058;17.040;2023-01-19T15:59:10;99262.34;;;-0.82;74.50
63351;BME280;64988;51.058;17.040;2023-01-19T16:05:03;99264.59;;;-0.92;76.84
63351;BME280;64988;51.058;17.040;2023-01-19T16:10:56;99273.88;;;-1.00;76.47
63351;BME280;64988;51.058;17.040;2023-01-19T16:16:48;99278.44;;;-1.23;76.15
63351;BME280;64988;51.058;17.040;2023-01-19T16:22:41;99278.41;;;-1.40;77.50
63351;BME280;64988;51.058;17.040;2023-01-19T16:28:36;99282.31;;;-1.48;77.36
63351;BME280;64988;51.058;17.040;2023-01-19T16:34:29;99289.63;;;-1.53;76.95
63351;BME280;64988;51.058;17.040;2023-01-19T16:40:21;99282.44;;;-1.51;76.61
63351;BME280;64988;51.058;17.040;2023-01-19T16:46:26;99290.34;;;-1.50;78.04
63351;BME280;64988;51.058;17.040;2023-01-19T16:52:21;99295.53;;;-1.48;77.78
63351;BME280;64988;51.058;17.040;2023-01-19T16:58:13;99298.63;;;-1.58;77.84
63351;BME280;64988;51.058;17.040;2023-01-19T17:04:07;99304.19;;;-1.64;77.98
63351;BME280;64988;51.058;17.040;2023-01-19T17:10:00;99293.69;;;-1.65;78.47
63351;BME280;64988;51.058;17.040;2023-01-19T17:15:58;99289.38;;;-1.68;79.11
63351;BME280;64988;51.058;17.040;2023-01-19T17:21:52;99298.97;;;-1.65;79.60
63351;BME280;64988;51.058;17.040;2023-01-19T17:27:45;99295.47;;;-1.66;78.71
63351;BME280;64988;51.058;17.040;2023-01-19T17:33:42;99292.53;;;-1.78;78.81
63351;BME280;64988;51.058;17.040;2023-01-19T17:39:37;99313.16;;;-1.86;78.81
63351;BME280;64988;51.058;17.040;2023-01-19T17:45:34;99314.19;;;-1.90;79.36
63351;BME280;64988;51.058;17.040;2023-01-19T17:51:27;99325.66;;;-1.90;80.00
63351;BME280;64988;51.058;17.040;2023-01-19T17:57:20;99330.00;;;-1.89;79.94
63351;BME280;64988;51.058;17.040;2023-01-19T18:03:16;99330.88;;;-1.88;79.45
63351;BME280;64988;51.058;17.040;2023-01-19T18:09:09;99341.31;;;-2.05;80.28
63351;BME280;64988;51.058;17.040;2023-01-19T18:15:06;99330.56;;;-2.21;80.04
63351;BME280;64988;51.058;17.040;2023-01-19T18:21:02;99340.91;;;-2.37;80.81
63351;BME280;64988;51.058;17.040;2023-01-19T18:26:56;99349.88;;;-2.41;81.99
63351;BME280;64988;51.058;17.040;2023-01-19T18:32:49;99347.84;;;-2.34;82.44
63351;BME280;64988;51.058;17.040;2023-01-19T18:38:44;99342.28;;;-2.28;82.19
63351;BME280;64988;51.058;17.040;2023-01-19T18:44:37;99338.00;;;-2.31;82.34
63351;BME280;64988;51.058;17.040;2023-01-19T18:50:30;99333.97;;;-2.19;81.98
63351;BME280;64988;51.058;17.040;2023-01-19T18:56:23;99336.56;;;-2.18;81.38
63351;BME280;64988;51.058;17.040;2023-01-19T19:02:16;99337.22;;;-2.33;81.00
63351;BME280;64988;51.058;17.040;2023-01-19T19:08:08;99351.06;;;-2.48;81.63
63351;BME280;64988;51.058;17.040;2023-01-19T19:14:01;99361.00;;;-2.54;82.21
63351;BME280;64988;51.058;17.040;2023-01-19T19:19:54;99363.13;;;-2.62;81.36
63351;BME280;64988;51.058;17.040;2023-01-19T19:25:47;99372.63;;;-2.80;81.53
63351;BME280;64988;51.058;17.040;2023-01-19T19:31:41;99386.59;;;-3.00;81.56
63351;BME280;64988;51.058;17.040;2023-01-19T19:37:34;99399.13;;;-3.05;82.20
63351;BME280;64988;51.058;17.040;2023-01-19T19:43:27;99406.41;;;-3.11;82.37
63351;BME280;64988;51.058;17.040;2023-01-19T19:49:19;99416.97;;;-3.11;82.36
63351;BME280;64988;51.058;17.040;2023-01-19T19:55:13;99430.22;;;-3.13;82.70
63351;BME280;64988;51.058;17.040;2023-01-19T20:01:08;99433.84;;;-3.15;82.43
63351;BME280;64988;51.058;17.040;2023-01-19T20:07:02;99441.75;;;-3.15;83.05
63351;BME280;64988;51.058;17.040;2023-01-19T20:12:54;99447.84;;;-3.13;82.77
63351;BME280;64988;51.058;17.040;2023-01-19T20:18:48;99453.69;;;-3.05;84.38
63351;BME280;64988;51.058;17.040;2023-01-19T20:24:47;99463.78;;;-2.93;85.44
63351;BME280;64988;51.058;17.040;2023-01-19T20:30:44;99460.06;;;-2.88;84.35
63351;BME280;64988;51.058;17.040;2023-01-19T20:36:37;99449.66;;;-2.92;83.73
63351;BME280;64988;51.058;17.040;2023-01-19T20:42:29;99446.63;;;-2.82;84.28
63351;BME280;64988;51.058;17.040;2023-01-19T20:48:21;99455.22;;;-2.77;83.70
63351;BME280;64988;51.058;17.040;2023-01-19T20:54:17;99467.41;;;-2.73;83.58
63351;BME280;64988;51.058;17.040;2023-01-19T21:00:11;99471.69;;;-2.70;84.37
63351;BME280;64988;51.058;17.040;2023-01-19T21:06:03;99466.78;;;-2.57;84.15
63351;BME280;64988;51.058;17.040;2023-01-19T21:11:56;99456.56;;;-2.43;84.74
63351;BME280;64988;51.058;17.040;2023-01-19T21:17:48;99452.44;;;-2.29;83.45
63351;BME280;64988;51.058;17.040;2023-01-19T21:23:41;99462.88;;;-2.26;82.94
63351;BME280;64988;51.058;17.040;2023-01-19T21:29:35;99464.59;;;-2.25;82.88
63351;BME280;64988;51.058;17.040;2023-01-19T21:35:29;99465.94;;;-2.15;83.59
63351;BME280;64988;51.058;17.040;2023-01-19T21:41:23;99462.13;;;-2.07;83.12
63351;BME280;64988;51.058;17.040;2023-01-19T21:47:16;99474.91;;;-1.97;82.75
63351;BME280;64988;51.058;17.040;2023-01-19T21:53:09;99477.09;;;-1.86;82.69
63351;BME280;64988;51.058;17.040;2023-01-19T21:59:03;99466.22;;;-1.79;82.12
63351;BME280;64988;51.058;17.040;2023-01-19T22:04:56;99470.31;;;-1.72;81.60
63351;BME280;64988;51.058;17.040;2023-01-19T22:10:49;99476.34;;;-1.68;81.87
63351;BME280;64988;51.058;17.040;2023-01-19T22:16:41;99484.94;;;-1.63;81.50
63351;BME280;64988;51.058;17.040;2023-01-19T22:22:35;99492.75;;;-1.60;81.24
63351;BME280;64988;51.058;17.040;2023-01-19T22:28:28;99506.16;;;-1.65;81.47
63351;BME280;64988;51.058;17.040;2023-01-19T22:34:21;99509.00;;;-1.69;80.86
63351;BME280;64988;51.058;17.040;2023-01-19T22:40:15;99510.84;;;-1.71;81.12
63351;BME280;64988;51.058;17.040;2023-01-19T22:46:07;99525.00;;;-1.72;82.29
63351;BME280;64988;51.058;17.040;2023-01-19T22:52:00;99529.00;;;-1.62;81.85
63351;BME280;64988;51.058;17.040;2023-01-19T22:57:52;99529.78;;;-1.60;81.84
63351;BME280;64988;51.058;17.040;2023-01-19T23:03:45;99531.44;;;-1.58;81.39
63351;BME280;64988;51.058;17.040;2023-01-19T23:09:38;99535.41;;;-1.47;81.19
63351;BME280;64988;51.058;17.040;2023-01-19T23:15:32;99528.28;;;-1.45;80.10
63351;BME280;64988;51.058;17.040;2023-01-19T23:21:27;99530.06;;;-1.46;81.13
63351;BME280;64988;51.058;17.040;2023-01-19T23:27:21;99531.84;;;-1.46;80.58
63351;BME280;64988;51.058;17.040;2023-01-19T23:33:14;99533.69;;;-1.48;80.31
63351;BME280;64988;51.058;17.040;2023-01-19T23:39:12;99546.00;;;-1.47;81.40
63351;BME280;64988;51.058;17.040;2023-01-19T23:45:05;99550.50;;;-1.49;82.63
63351;BME280;64988;51.058;17.040;2023-01-19T23:50:57;99562.69;;;-1.45;82.82
63351;BME280;64988;51.058;17.040;2023-01-19T23:56:51;99563.00;;;-1.53;81.95
